createdAt,value
2023-05-19T00:01:52.429Z,102906.69
2023-05-19T00:04:19.323Z,102904.97
2023-05-19T00:06:50.842Z,102897.91
2023-05-19T00:09:17.857Z,102900.50
2023-05-19T00:11:44.623Z,102906.13
2023-05-19T00:14:11.505Z,102901.38
2023-05-19T00:16:38.605Z,102889.22
2023-05-19T00:19:06.550Z,102887.59
2023-05-19T00:21:33.274Z,102887.16
2023-05-19T00:23:59.853Z,102882.38
2023-05-19T00:26:27.175Z,102884.63
2023-05-19T00:28:54.227Z,102881.44
2023-05-19T00:31:21.023Z,102884.50
2023-05-19T00:33:47.640Z,102882.44
2023-05-19T00:36:14.283Z,102878.44
2023-05-19T00:38:40.979Z,102875.72
2023-05-19T00:41:07.816Z,102885.34
2023-05-19T00:43:34.708Z,102878.19
2023-05-19T00:46:01.879Z,102878.38
2023-05-19T00:48:28.736Z,102879.50
2023-05-19T00:51:01.982Z,102881.75
2023-05-19T00:53:29.313Z,102878.53
2023-05-19T00:55:56.095Z,102878.53
2023-05-19T00:58:23.818Z,102877.75
2023-05-19T01:00:50.716Z,102876.81
2023-05-19T01:03:20.686Z,102881.66
2023-05-19T01:05:47.701Z,102874.59
2023-05-19T01:08:14.392Z,102874.59
2023-05-19T01:10:40.967Z,102874.13
2023-05-19T01:13:08.490Z,102880.25
2023-05-19T01:15:51.444Z,102884.63
2023-05-19T01:18:29.545Z,102879.03
2023-05-19T01:21:22.952Z,102881.31
2023-05-19T01:24:12.453Z,102870.25
2023-05-19T01:27:09.994Z,102877.28
2023-05-19T01:29:47.618Z,102873.28
2023-05-19T01:32:19.516Z,102865.28
2023-05-19T01:34:49.128Z,102869.13
2023-05-19T01:37:17.676Z,102861.47
2023-05-19T01:39:45.679Z,102856.53
2023-05-19T01:42:14.368Z,102856.03
2023-05-19T01:44:41.784Z,102850.81
2023-05-19T01:47:10.846Z,102864.53
2023-05-19T01:49:37.595Z,102858.78
2023-05-19T01:52:04.680Z,102861.50
2023-05-19T01:54:31.261Z,102858.78
2023-05-19T01:57:09.176Z,102859.13
2023-05-19T01:59:52.246Z,102854.03
2023-05-19T02:02:29.517Z,102848.44
2023-05-19T02:05:00.614Z,102842.19
2023-05-19T02:07:37.359Z,102846.84
2023-05-19T02:10:07.029Z,102848.75
2023-05-19T02:12:37.614Z,102849.09
2023-05-19T02:15:10.916Z,102852.94
2023-05-19T02:17:43.040Z,102852.94
2023-05-19T02:20:10.460Z,102855.03
2023-05-19T02:22:36.973Z,102855.38
2023-05-19T02:25:03.728Z,102852.97
2023-05-19T02:27:30.895Z,102849.78
2023-05-19T02:29:57.585Z,102837.78
2023-05-19T02:32:24.128Z,102840.19
2023-05-19T02:34:50.668Z,102843.06
2023-05-19T02:37:17.679Z,102836.38
2023-05-19T02:39:45.072Z,102835.09
2023-05-19T02:42:12.398Z,102841.19
2023-05-19T02:44:38.878Z,102834.50
2023-05-19T02:47:05.384Z,102832.09
2023-05-19T02:49:35.835Z,102826.34
2023-05-19T02:52:04.387Z,102824.13
2023-05-19T02:54:31.799Z,102827.94
2023-05-19T02:56:58.458Z,102820.44
2023-05-19T02:59:25.775Z,102821.41
2023-05-19T03:01:56.315Z,102817.09
2023-05-19T03:04:22.937Z,102819.81
2023-05-19T03:06:50.213Z,102813.91
2023-05-19T03:09:16.936Z,102810.72
2023-05-19T03:11:43.476Z,102811.19
2023-05-19T03:14:10.049Z,102810.88
2023-05-19T03:16:36.720Z,102806.72
2023-05-19T03:19:03.431Z,102810.22
2023-05-19T03:21:30.441Z,102812.16
2023-05-19T03:23:56.969Z,102821.75
2023-05-19T03:26:24.459Z,102811.69
2023-05-19T03:28:51.238Z,102813.13
2023-05-19T03:31:17.809Z,102813.91
2023-05-19T03:33:44.432Z,102815.34
2023-05-19T03:36:12.602Z,102813.78
2023-05-19T03:38:39.431Z,102813.78
2023-05-19T03:41:05.942Z,102812.97
2023-05-19T03:43:32.497Z,102810.28
2023-05-19T03:45:59.026Z,102801.66
2023-05-19T03:48:26.741Z,102799.25
2023-05-19T03:50:54.237Z,102805.00
2023-05-19T03:53:20.855Z,102798.63
2023-05-19T03:55:49.722Z,102804.06
2023-05-19T03:58:16.628Z,102806.44
2023-05-19T04:00:43.323Z,102803.72
2023-05-19T04:03:09.902Z,102806.13
2023-05-19T04:05:36.521Z,102814.44
2023-05-19T04:08:03.037Z,102815.72
2023-05-19T04:10:29.707Z,102811.06
2023-05-19T04:12:56.913Z,102807.09
2023-05-19T04:15:23.543Z,102811.06
2023-05-19T04:17:50.205Z,102807.88
2023-05-19T04:20:16.771Z,102804.38
2023-05-19T04:22:43.366Z,102807.41
2023-05-19T04:25:11.340Z,102809.81
2023-05-19T04:27:38.917Z,102820.66
2023-05-19T04:30:06.640Z,102823.84
2023-05-19T04:32:33.244Z,102814.75
2023-05-19T04:34:59.939Z,102813.13
2023-05-19T04:37:26.758Z,102814.25
2023-05-19T04:39:54.243Z,102817.75
2023-05-19T04:42:21.066Z,102816.19
2023-05-19T04:44:49.387Z,102820.00
2023-05-19T04:47:16.234Z,102820.00
2023-05-19T04:49:43.004Z,102818.56
2023-05-19T04:52:10.982Z,102822.53
2023-05-19T04:54:40.245Z,102822.72
2023-05-19T04:57:07.742Z,102825.25
2023-05-19T04:59:35.313Z,102825.41
2023-05-19T05:02:02.012Z,102827.00
2023-05-19T05:04:28.715Z,102828.13
2023-05-19T05:06:56.261Z,102827.97
2023-05-19T05:09:22.817Z,102826.22
2023-05-19T05:11:49.814Z,102829.56
2023-05-19T05:14:16.868Z,102829.38
2023-05-19T05:16:43.766Z,102834.63
2023-05-19T05:19:10.810Z,102835.28
2023-05-19T05:21:37.683Z,102832.69
2023-05-19T05:24:04.525Z,102838.94
2023-05-19T05:26:33.793Z,102830.31
2023-05-19T05:29:00.490Z,102839.06
2023-05-19T05:31:27.085Z,102836.97
2023-05-19T05:33:53.625Z,102834.06
2023-05-19T05:36:20.315Z,102830.22
2023-05-19T05:38:46.811Z,102821.44
2023-05-19T05:41:13.372Z,102826.22
2023-05-19T05:43:39.942Z,102828.63
2023-05-19T05:46:06.582Z,102830.34
2023-05-19T05:48:33.689Z,102837.19
2023-05-19T05:51:00.675Z,102838.91
2023-05-19T05:53:30.732Z,102839.13
2023-05-19T05:55:57.635Z,102838.34
2023-05-19T05:58:24.284Z,102837.63
2023-05-19T06:00:51.443Z,102835.72
2023-05-19T06:03:18.135Z,102837.84
2023-05-19T06:05:44.818Z,102836.16
2023-05-19T06:08:11.349Z,102835.16
2023-05-19T06:10:41.652Z,102835.06
2023-05-19T06:13:08.193Z,102841.22
2023-05-19T06:15:34.735Z,102844.91
2023-05-19T06:18:01.468Z,102845.63
2023-05-19T06:20:28.721Z,102848.19
2023-05-19T06:22:55.814Z,102834.78
2023-05-19T06:25:22.876Z,102842.06
2023-05-19T06:27:49.722Z,102844.31
2023-05-19T06:30:16.630Z,102840.13
2023-05-19T06:32:43.190Z,102837.84
2023-05-19T06:35:09.824Z,102835.19
2023-05-19T06:37:36.554Z,102834.09
2023-05-19T06:40:03.636Z,102832.69
2023-05-19T06:42:30.122Z,102836.94
2023-05-19T06:44:56.698Z,102835.84
2023-05-19T06:47:23.283Z,102836.19
2023-05-19T06:49:51.691Z,102833.47
2023-05-19T06:52:18.294Z,102833.13
2023-05-19T06:54:44.866Z,102835.69
2023-05-19T06:57:11.431Z,102836.03
2023-05-19T06:59:40.754Z,102837.44
2023-05-19T07:02:08.179Z,102834.47
2023-05-19T07:04:35.539Z,102841.00
2023-05-19T07:07:02.312Z,102837.38
2023-05-19T07:09:28.907Z,102844.44
2023-05-19T07:11:56.359Z,102841.63
2023-05-19T07:14:23.242Z,102828.53
2023-05-19T07:16:49.972Z,102832.72
2023-05-19T07:19:16.859Z,102832.88
2023-05-19T07:21:43.496Z,102839.78
2023-05-19T07:24:10.095Z,102833.94
2023-05-19T07:26:36.629Z,102837.13
2023-05-19T07:29:04.286Z,102834.72
2023-05-19T07:31:31.135Z,102834.81
2023-05-19T07:33:59.040Z,102836.41
2023-05-19T07:36:25.720Z,102830.91
2023-05-19T07:38:52.320Z,102833.34
2023-05-19T07:41:18.863Z,102842.63
2023-05-19T07:43:45.549Z,102840.56
2023-05-19T07:46:12.128Z,102839.69
2023-05-19T07:48:38.705Z,102826.75
2023-05-19T07:51:05.478Z,102832.72
2023-05-19T07:53:31.984Z,102822.84
2023-05-19T07:55:58.869Z,102828.53
2023-05-19T07:58:25.661Z,102829.81
2023-05-19T08:00:53.211Z,102831.38
2023-05-19T08:03:20.971Z,102820.50
2023-05-19T08:05:49.005Z,102818.91
2023-05-19T08:08:17.000Z,102813.28
2023-05-19T08:10:43.622Z,102814.81
2023-05-19T08:13:10.210Z,102809.09
2023-05-19T08:15:36.916Z,102811.22
2023-05-19T08:18:05.399Z,102811.75
2023-05-19T08:20:32.949Z,102809.06
2023-05-19T08:22:59.937Z,102807.59
2023-05-19T08:25:26.584Z,102804.25
2023-05-19T08:27:53.262Z,102798.13
2023-05-19T08:30:20.021Z,102804.47
2023-05-19T08:32:47.060Z,102798.97
2023-05-19T08:35:13.847Z,102793.84
2023-05-19T08:37:40.942Z,102792.28
2023-05-19T08:40:08.970Z,102782.13
2023-05-19T08:42:35.838Z,102790.09
2023-05-19T08:45:04.426Z,102781.63
2023-05-19T08:47:33.021Z,102789.91
2023-05-19T08:50:07.448Z,102783.31
2023-05-19T08:52:48.918Z,102772.06
2023-05-19T08:55:28.489Z,102774.13
2023-05-19T08:57:56.668Z,102775.69
2023-05-19T09:00:23.648Z,102770.63
2023-05-19T09:03:00.232Z,102767.09
2023-05-19T09:05:33.556Z,102771.91
2023-05-19T09:08:02.722Z,102767.94
2023-05-19T09:10:29.562Z,102768.72
2023-05-19T09:12:56.388Z,102769.19
2023-05-19T09:15:26.717Z,102765.28
2023-05-19T09:18:12.097Z,102758.19
2023-05-19T09:20:41.813Z,102765.28
2023-05-19T09:23:13.722Z,102758.25
2023-05-19T09:25:49.911Z,102763.84
2023-05-19T09:28:29.474Z,102767.00
2023-05-19T09:31:12.241Z,102761.16
2023-05-19T09:33:45.521Z,102762.00
2023-05-19T09:36:13.886Z,102759.69
2023-05-19T09:38:41.401Z,102764.06
2023-05-19T09:41:09.270Z,102764.16
2023-05-19T09:43:36.504Z,102759.19
2023-05-19T09:46:06.656Z,102752.56
2023-05-19T09:48:34.613Z,102758.84
2023-05-19T09:51:03.328Z,102746.72
2023-05-19T09:53:31.358Z,102749.84
2023-05-19T09:55:59.049Z,102753.34
2023-05-19T09:58:26.849Z,102745.91
2023-05-19T10:00:54.776Z,102749.84
2023-05-19T10:03:24.779Z,102743.16
2023-05-19T10:05:54.496Z,102746.28
2023-05-19T10:08:24.141Z,102750.59
2023-05-19T10:10:50.839Z,102748.28
2023-05-19T10:13:18.823Z,102751.47
2023-05-19T10:18:22.961Z,102740.56
2023-05-19T10:20:50.436Z,102735.59
2023-05-19T10:23:17.327Z,102737.31
2023-05-19T10:25:46.059Z,102736.28
2023-05-19T10:28:17.224Z,102727.75
2023-05-19T10:30:47.692Z,102733.03
2023-05-19T10:33:18.115Z,102727.22
2023-05-19T10:36:08.308Z,102716.63
2023-05-19T10:38:56.521Z,102722.19
2023-05-19T10:41:42.335Z,102723.47
2023-05-19T10:44:34.461Z,102721.97
2023-05-19T10:47:01.246Z,102717.72
2023-05-19T10:49:27.969Z,102713.81
2023-05-19T10:51:57.278Z,102715.78
2023-05-19T10:54:41.227Z,102723.28
2023-05-19T10:57:08.682Z,102713.84
2023-05-19T10:59:37.825Z,102723.69
2023-05-19T11:02:06.430Z,102718.19
2023-05-19T11:04:47.433Z,102710.28
2023-05-19T11:07:17.722Z,102709.50
2023-05-19T11:09:44.316Z,102713.44
2023-05-19T11:12:11.144Z,102711.84
2023-05-19T11:14:37.745Z,102710.69
2023-05-19T11:17:05.565Z,102701.56
2023-05-19T11:19:35.087Z,102701.59
2023-05-19T11:22:13.016Z,102706.34
2023-05-19T11:24:44.414Z,102708.72
2023-05-19T11:27:20.420Z,102702.78
2023-05-19T11:29:48.737Z,102697.28
2023-05-19T11:32:16.899Z,102690.56
2023-05-19T11:34:44.906Z,102690.16
2023-05-19T11:37:12.191Z,102689.41
2023-05-19T11:39:40.253Z,102686.63
2023-05-19T11:42:10.805Z,102694.47
2023-05-19T11:44:38.502Z,102694.06
2023-05-19T11:47:05.781Z,102683.03
2023-05-19T11:49:32.591Z,102688.53
2023-05-19T11:52:00.985Z,102689.00
2023-05-19T11:54:48.267Z,102681.50
2023-05-19T11:57:14.941Z,102677.50
2023-05-19T11:59:49.697Z,102673.97
2023-05-19T12:02:18.981Z,102678.66
2023-05-19T12:04:46.330Z,102681.47
2023-05-19T12:07:17.464Z,102680.66
2023-05-19T12:09:45.999Z,102668.00
2023-05-19T12:12:19.319Z,102676.28
2023-05-19T12:14:47.692Z,102671.19
2023-05-19T12:17:18.188Z,102683.44
2023-05-19T12:19:47.047Z,102686.56
2023-05-19T12:22:14.975Z,102672.72
2023-05-19T12:24:43.116Z,102675.91
2023-05-19T12:27:17.216Z,102679.50
2023-05-19T12:29:43.824Z,102673.63
2023-05-19T12:32:10.526Z,102672.81
2023-05-19T12:34:38.468Z,102666.03
2023-05-19T12:37:05.703Z,102666.47
2023-05-19T12:39:34.730Z,102667.28
2023-05-19T12:42:06.601Z,102658.63
2023-05-19T12:44:38.272Z,102655.47
2023-05-19T12:47:07.125Z,102645.22
2023-05-19T12:49:34.307Z,102649.97
2023-05-19T12:52:06.156Z,102652.28
2023-05-19T12:54:36.010Z,102651.84
2023-05-19T12:57:07.123Z,102647.44
2023-05-19T12:59:38.822Z,102652.56
2023-05-19T13:02:06.566Z,102646.66
2023-05-19T13:04:37.904Z,102640.31
2023-05-19T13:07:07.870Z,102648.59
2023-05-19T13:09:36.272Z,102637.94
2023-05-19T13:12:02.880Z,102635.91
2023-05-19T13:14:29.485Z,102633.91
2023-05-19T13:16:56.179Z,102638.28
2023-05-19T13:19:25.809Z,102639.50
2023-05-19T13:21:52.876Z,102641.53
2023-05-19T13:24:19.447Z,102628.88
2023-05-19T13:26:46.043Z,102638.72
2023-05-19T13:29:12.575Z,102626.88
2023-05-19T13:31:39.200Z,102626.97
2023-05-19T13:34:05.700Z,102626.63
2023-05-19T13:36:33.392Z,102608.81
2023-05-19T13:39:01.786Z,102620.59
2023-05-19T13:41:29.423Z,102613.47
2023-05-19T13:43:59.789Z,102617.06
2023-05-19T13:46:36.496Z,102608.34
2023-05-19T13:49:12.947Z,102613.75
2023-05-19T13:51:42.663Z,102611.72
2023-05-19T13:54:09.419Z,102592.28
2023-05-19T13:56:36.561Z,102598.88
2023-05-19T13:59:04.021Z,102598.88
2023-05-19T14:01:30.845Z,102598.56
2023-05-19T14:03:57.718Z,102595.13
2023-05-19T14:06:24.470Z,102603.31
2023-05-19T14:08:51.193Z,102593.00
2023-05-19T14:11:21.476Z,102594.81
2023-05-19T14:13:52.913Z,102587.72
2023-05-19T14:16:22.872Z,102589.56
2023-05-19T14:18:49.576Z,102583.53
2023-05-19T14:21:16.185Z,102591.75
2023-05-19T14:23:42.805Z,102587.75
2023-05-19T14:26:09.492Z,102582.03
2023-05-19T14:28:36.210Z,102584.19
2023-05-19T14:31:03.245Z,102579.44
2023-05-19T14:33:34.921Z,102576.81
2023-05-19T14:36:02.189Z,102576.75
2023-05-19T14:38:29.443Z,102573.47
2023-05-19T14:40:56.369Z,102568.75
2023-05-19T14:43:23.159Z,102568.66
2023-05-19T14:45:49.927Z,102569.72
2023-05-19T14:48:17.515Z,102567.28
2023-05-19T14:50:44.383Z,102563.59
2023-05-19T14:53:11.184Z,102561.06
2023-05-19T14:55:37.792Z,102558.31
2023-05-19T14:58:12.902Z,102559.44
2023-05-19T15:00:47.949Z,102565.13
2023-05-19T15:03:14.597Z,102570.78
2023-05-19T15:05:41.522Z,102560.25
2023-05-19T15:08:08.115Z,102567.69
2023-05-19T15:10:34.914Z,102565.91
2023-05-19T15:13:01.684Z,102555.22
2023-05-19T15:15:28.320Z,102556.53
2023-05-19T15:17:54.928Z,102555.28
2023-05-19T15:20:21.542Z,102553.41
2023-05-19T15:22:48.722Z,102547.84
2023-05-19T15:25:15.306Z,102542.59
2023-05-19T15:27:41.885Z,102548.59
2023-05-19T15:30:08.728Z,102551.31
2023-05-19T15:32:35.463Z,102550.13
2023-05-19T15:35:02.093Z,102552.63
2023-05-19T15:37:28.748Z,102542.03
2023-05-19T15:39:55.722Z,102550.53
2023-05-19T15:42:22.314Z,102552.38
2023-05-19T15:44:48.987Z,102540.44
2023-05-19T15:47:15.614Z,102540.69
2023-05-19T15:49:42.179Z,102547.34
2023-05-19T15:52:08.851Z,102536.94
2023-05-19T15:54:35.654Z,102542.13
2023-05-19T15:57:02.201Z,102541.94
2023-05-19T15:59:28.812Z,102536.47
2023-05-19T16:01:55.529Z,102535.66
2023-05-19T16:04:22.251Z,102531.72
2023-05-19T16:06:48.999Z,102526.81
2023-05-19T16:09:15.711Z,102531.09
2023-05-19T16:11:43.398Z,102522.44
2023-05-19T16:14:10.011Z,102519.06
2023-05-19T16:16:36.577Z,102516.94
2023-05-19T16:19:03.231Z,102516.31
2023-05-19T16:21:29.828Z,102514.06
2023-05-19T16:23:56.417Z,102507.16
2023-05-19T16:26:23.079Z,102506.28
2023-05-19T16:28:49.652Z,102511.16
2023-05-19T16:31:16.390Z,102505.00
2023-05-19T16:33:42.969Z,102503.03
2023-05-19T16:36:09.557Z,102501.25
2023-05-19T16:38:36.120Z,102500.75
2023-05-19T16:41:04.480Z,102508.75
2023-05-19T16:43:36.753Z,102511.22
2023-05-19T16:46:04.532Z,102504.25
2023-05-19T16:48:31.345Z,102508.69
2023-05-19T16:50:57.903Z,102508.81
2023-05-19T16:53:25.446Z,102514.81
2023-05-19T16:55:51.941Z,102519.63
2023-05-19T16:58:19.572Z,102516.91
2023-05-19T17:00:46.235Z,102514.03
2023-05-19T17:03:14.088Z,102505.66
2023-05-19T17:05:41.950Z,102505.22
2023-05-19T17:08:08.501Z,102503.16
2023-05-19T17:10:35.918Z,102508.34
2023-05-19T17:13:02.893Z,102512.41
2023-05-19T17:15:30.321Z,102508.97
2023-05-19T17:17:56.995Z,102515.72
2023-05-19T17:20:23.576Z,102509.84
2023-05-19T17:22:51.026Z,102515.81
2023-05-19T17:25:18.711Z,102510.72
2023-05-19T17:27:45.350Z,102515.84
2023-05-19T17:30:13.466Z,102511.91
2023-05-19T17:32:40.127Z,102510.72
2023-05-19T17:35:07.587Z,102505.97
2023-05-19T17:37:34.205Z,102505.16
2023-05-19T17:40:00.970Z,102513.81
2023-05-19T17:42:29.028Z,102512.66
2023-05-19T17:44:55.615Z,102515.47
2023-05-19T17:47:22.172Z,102516.28
2023-05-19T17:49:48.919Z,102524.97
2023-05-19T17:52:16.645Z,102513.94
2023-05-19T17:54:43.496Z,102518.31
2023-05-19T17:57:12.708Z,102511.25
2023-05-19T17:59:39.635Z,102516.78
2023-05-19T18:02:07.781Z,102515.59
2023-05-19T18:04:34.820Z,102524.28
2023-05-19T18:07:03.489Z,102512.88
2023-05-19T18:09:30.797Z,102525.88
2023-05-19T18:11:58.319Z,102528.66
2023-05-19T18:14:24.918Z,102523.16
2023-05-19T18:16:51.829Z,102524.75
2023-05-19T18:19:18.354Z,102530.66
2023-05-19T18:21:44.887Z,102529.91
2023-05-19T18:24:11.565Z,102528.34
2023-05-19T18:26:41.690Z,102524.78
2023-05-19T18:29:11.254Z,102535.06
2023-05-19T18:31:38.297Z,102531.09
2023-05-19T18:34:04.966Z,102528.72
2023-05-19T18:36:31.822Z,102541.31
2023-05-19T18:39:00.072Z,102535.78
2023-05-19T18:41:26.632Z,102539.34
2023-05-19T18:43:53.282Z,102546.44
2023-05-19T18:46:20.433Z,102546.03
2023-05-19T18:48:47.357Z,102540.53
2023-05-19T18:51:16.804Z,102548.78
2023-05-19T18:53:43.366Z,102540.53
2023-05-19T18:56:11.421Z,102544.44
2023-05-19T18:58:37.993Z,102538.13
2023-05-19T19:01:05.224Z,102542.84
2023-05-19T19:03:32.004Z,102549.13
2023-05-19T19:05:59.547Z,102554.63
2023-05-19T19:08:26.164Z,102552.63
2023-05-19T19:10:53.564Z,102558.13
2023-05-19T19:13:20.816Z,102559.31
2023-05-19T19:15:48.390Z,102550.22
2023-05-19T19:18:14.929Z,102553.75
2023-05-19T19:20:41.648Z,102552.50
2023-05-19T19:23:08.278Z,102556.41
2023-05-19T19:25:34.961Z,102561.09
2023-05-19T19:28:01.644Z,102567.34
2023-05-19T19:30:29.318Z,102570.84
2023-05-19T19:32:57.043Z,102568.06
2023-05-19T19:35:23.651Z,102575.50
2023-05-19T19:37:51.702Z,102576.25
2023-05-19T19:40:18.260Z,102582.88
2023-05-19T19:42:44.789Z,102589.53
2023-05-19T19:45:13.251Z,102584.41
2023-05-19T19:47:42.156Z,102589.50
2023-05-19T19:50:10.537Z,102593.34
2023-05-19T19:52:37.590Z,102583.09
2023-05-19T19:55:05.560Z,102595.22
2023-05-19T19:57:35.149Z,102593.56
2023-05-19T20:00:08.070Z,102597.41
2023-05-19T20:02:45.382Z,102605.94
2023-05-19T20:05:18.320Z,102610.22
2023-05-19T20:07:45.065Z,102606.22
2023-05-19T20:10:11.641Z,102614.00
2023-05-19T20:12:38.298Z,102609.69
2023-05-19T20:15:06.232Z,102611.97
2023-05-19T20:17:32.796Z,102616.28
2023-05-19T20:20:00.915Z,102622.09
2023-05-19T20:22:27.433Z,102611.50
2023-05-19T20:24:54.010Z,102618.22
2023-05-19T20:27:20.627Z,102624.91
2023-05-19T20:29:47.192Z,102619.81
2023-05-19T20:32:13.810Z,102620.19
2023-05-19T20:34:41.346Z,102615.41
2023-05-19T20:37:07.956Z,102625.19
2023-05-19T20:39:34.620Z,102631.84
2023-05-19T20:42:01.216Z,102629.47
2023-05-19T20:44:27.754Z,102627.81
2023-05-19T20:46:54.803Z,102629.78
2023-05-19T20:49:22.394Z,102636.41
2023-05-19T20:51:48.912Z,102632.50
2023-05-19T20:54:15.985Z,102637.16
2023-05-19T20:56:42.617Z,102637.13
2023-05-19T20:59:09.191Z,102640.53
2023-05-19T21:01:35.779Z,102636.19
2023-05-19T21:04:06.684Z,102641.25
2023-05-19T21:06:33.827Z,102639.00
2023-05-19T21:09:03.682Z,102635.03
2023-05-19T21:11:30.423Z,102636.09
2023-05-19T21:13:57.034Z,102647.44
2023-05-19T21:16:23.664Z,102640.38
2023-05-19T21:18:50.354Z,102641.50
2023-05-19T21:21:16.954Z,102637.91
2023-05-19T21:23:43.495Z,102649.25
2023-05-19T21:26:09.963Z,102647.19
2023-05-19T21:28:36.477Z,102652.31
2023-05-19T21:31:05.332Z,102652.75
2023-05-19T21:33:32.164Z,102652.31
2023-05-19T21:36:00.284Z,102661.34
2023-05-19T21:38:27.486Z,102653.41
2023-05-19T21:40:54.106Z,102657.19
2023-05-19T21:43:21.762Z,102655.56
2023-05-19T21:45:48.428Z,102664.97
2023-05-19T21:48:15.104Z,102660.63
2023-05-19T21:50:41.741Z,102658.66
2023-05-19T21:53:08.320Z,102668.38
2023-05-19T21:55:34.964Z,102666.25
2023-05-19T21:58:02.597Z,102669.44
2023-05-19T22:00:29.448Z,102671.69
2023-05-19T22:02:56.195Z,102668.53
2023-05-19T22:05:22.871Z,102672.00
2023-05-19T22:07:49.466Z,102662.47
2023-05-19T22:10:16.480Z,102666.41
2023-05-19T22:12:43.044Z,102664.75
2023-05-19T22:15:10.480Z,102667.44
2023-05-19T22:17:37.079Z,102662.34
2023-05-19T22:20:04.047Z,102663.03
2023-05-19T22:22:30.707Z,102656.72
2023-05-19T22:24:57.261Z,102662.94
2023-05-19T22:27:23.786Z,102661.28
2023-05-19T22:29:50.530Z,102671.81
2023-05-19T22:32:18.338Z,102670.16
2023-05-19T22:34:45.360Z,102668.22
2023-05-19T22:37:12.062Z,102674.47
2023-05-19T22:39:39.421Z,102665.13
2023-05-19T22:42:06.273Z,102669.66
2023-05-19T22:44:32.862Z,102666.81
2023-05-19T22:46:59.358Z,102666.03
2023-05-19T22:49:27.328Z,102669.06
2023-05-19T22:51:53.826Z,102661.19
2023-05-19T22:54:20.493Z,102665.47
2023-05-19T22:56:48.810Z,102659.44
2023-05-19T22:59:18.010Z,102654.66
2023-05-19T23:01:46.696Z,102669.09
2023-05-19T23:04:13.864Z,102668.91
2023-05-19T23:06:40.611Z,102660.72
2023-05-19T23:09:07.153Z,102667.19
2023-05-19T23:11:34.715Z,102666.31
2023-05-19T23:14:01.994Z,102656.00
2023-05-19T23:16:28.619Z,102658.75
2023-05-19T23:18:55.310Z,102655.97
2023-05-19T23:21:21.954Z,102662.56
2023-05-19T23:23:49.552Z,102654.66
2023-05-19T23:26:16.182Z,102654.94
2023-05-19T23:28:43.156Z,102664.59
2023-05-19T23:31:10.376Z,102660.25
2023-05-19T23:33:37.044Z,102659.47
2023-05-19T23:36:10.688Z,102660.88
2023-05-19T23:38:37.535Z,102654.56
2023-05-19T23:41:05.060Z,102651.03
2023-05-19T23:43:33.212Z,102655.00
2023-05-19T23:46:00.424Z,102649.53
2023-05-19T23:48:28.845Z,102658.72
2023-05-19T23:50:56.661Z,102656.44
2023-05-19T23:53:23.414Z,102654.84
2023-05-19T23:55:51.318Z,102642.31
2023-05-19T23:58:18.087Z,102660.69
